Thompson, Mississippi
Current Conditions -  °F | °C
As of 5:53 AM on Monday 22 Dec 2014 (Local Time) from KMCB Reporting Station
Moderate Fog Moderate Fog  
Wind Chill: 54°   Ceiling: 200
Heat Index: 54°   Visibility: 0.25mi
Dew Point: 53°   Wind: 3mph
Humidity: 97%   Direction: 130°SE
Pressure: 29.86"   Gusts: NA
Location:  31.3682°N, 90.6714°W
Report Text: KMCB 221153Z AUTO 13003KT 1/4SM FG VV002 12/12 A2986 RMK AO2 SLP108 60001 70001 T01220117 10122 20111 55009 $
Loading
Personal Weather Stations






























Interactive Weather Map New forecast layout! Learn more

10-Day Weather Forecast

Advertisements
Track Severe Weather on mobile